sensor_id;sensor_type;location;lat;lon;timestamp;P1;durP1;ratioP1;P2;durP2;ratioP2
6836;SDS011;3456;42.136;24.736;2023-05-23T10:15:45;16.47;;;4.30;;
6836;SDS011;3456;42.136;24.736;2023-05-23T19:50:01;8.40;;;4.83;;
6836;SDS011;3456;42.136;24.736;2023-05-23T19:52:31;6.70;;;4.43;;
6836;SDS011;3456;42.136;24.736;2023-05-23T19:55:00;9.53;;;4.63;;
6836;SDS011;3456;42.136;24.736;2023-05-23T19:57:29;9.53;;;4.43;;
6836;SDS011;3456;42.136;24.736;2023-05-23T19:59:58;9.23;;;4.23;;
6836;SDS011;3456;42.136;24.736;2023-05-23T20:02:30;9.07;;;4.90;;
6836;SDS011;3456;42.136;24.736;2023-05-23T20:04:59;7.43;;;5.03;;
6836;SDS011;3456;42.136;24.736;2023-05-23T20:07:28;7.23;;;5.10;;
6836;SDS011;3456;42.136;24.736;2023-05-23T20:09:56;13.27;;;5.60;;
6836;SDS011;3456;42.136;24.736;2023-05-23T20:12:25;8.37;;;5.23;;
6836;SDS011;3456;42.136;24.736;2023-05-23T20:14:54;10.03;;;5.87;;
6836;SDS011;3456;42.136;24.736;2023-05-23T20:17:23;8.87;;;5.33;;
6836;SDS011;3456;42.136;24.736;2023-05-23T20:19:56;12.43;;;6.47;;
6836;SDS011;3456;42.136;24.736;2023-05-23T20:22:25;8.67;;;5.83;;
6836;SDS011;3456;42.136;24.736;2023-05-23T20:24:54;9.77;;;6.03;;
6836;SDS011;3456;42.136;24.736;2023-05-23T20:27:23;12.40;;;5.60;;
6836;SDS011;3456;42.136;24.736;2023-05-23T20:29:52;8.10;;;5.57;;
6836;SDS011;3456;42.136;24.736;2023-05-23T20:32:20;11.43;;;5.73;;
6836;SDS011;3456;42.136;24.736;2023-05-23T20:34:49;16.27;;;4.97;;
6836;SDS011;3456;42.136;24.736;2023-05-23T20:37:20;10.10;;;5.13;;
6836;SDS011;3456;42.136;24.736;2023-05-23T20:39:49;7.83;;;4.47;;
6836;SDS011;3456;42.136;24.736;2023-05-23T20:42:18;8.57;;;4.37;;
6836;SDS011;3456;42.136;24.736;2023-05-23T20:44:47;9.60;;;4.80;;
6836;SDS011;3456;42.136;24.736;2023-05-23T20:47:15;10.20;;;5.07;;
6836;SDS011;3456;42.136;24.736;2023-05-23T20:49:44;11.00;;;5.07;;
6836;SDS011;3456;42.136;24.736;2023-05-23T20:52:13;6.93;;;4.97;;
6836;SDS011;3456;42.136;24.736;2023-05-23T20:54:45;10.37;;;5.63;;
6836;SDS011;3456;42.136;24.736;2023-05-23T20:57:14;8.27;;;5.53;;
6836;SDS011;3456;42.136;24.736;2023-05-23T20:59:44;9.63;;;5.33;;
6836;SDS011;3456;42.136;24.736;2023-05-23T21:02:13;10.93;;;5.03;;
6836;SDS011;3456;42.136;24.736;2023-05-23T21:04:42;11.17;;;5.37;;
6836;SDS011;3456;42.136;24.736;2023-05-23T21:07:11;7.07;;;5.23;;
6836;SDS011;3456;42.136;24.736;2023-05-23T21:09:40;9.90;;;5.83;;
6836;SDS011;3456;42.136;24.736;2023-05-23T21:12:11;13.63;;;6.30;;
6836;SDS011;3456;42.136;24.736;2023-05-23T21:14:40;14.33;;;7.30;;
6836;SDS011;3456;42.136;24.736;2023-05-23T21:17:09;10.93;;;6.83;;
6836;SDS011;3456;42.136;24.736;2023-05-23T21:19:37;12.27;;;7.03;;
6836;SDS011;3456;42.136;24.736;2023-05-23T21:22:06;10.00;;;7.17;;
6836;SDS011;3456;42.136;24.736;2023-05-23T21:24:35;15.47;;;7.83;;
6836;SDS011;3456;42.136;24.736;2023-05-23T21:27:04;12.20;;;7.57;;
6836;SDS011;3456;42.136;24.736;2023-05-23T21:29:35;10.07;;;7.60;;
6836;SDS011;3456;42.136;24.736;2023-05-23T21:32:04;9.73;;;7.53;;
6836;SDS011;3456;42.136;24.736;2023-05-23T21:34:33;15.07;;;8.40;;
6836;SDS011;3456;42.136;24.736;2023-05-23T21:37:02;10.83;;;7.67;;
6836;SDS011;3456;42.136;24.736;2023-05-23T21:39:31;9.93;;;7.33;;
6836;SDS011;3456;42.136;24.736;2023-05-23T21:42:00;15.63;;;7.53;;
6836;SDS011;3456;42.136;24.736;2023-05-23T21:44:29;11.70;;;7.77;;
6836;SDS011;3456;42.136;24.736;2023-05-23T21:47:00;11.67;;;8.17;;
6836;SDS011;3456;42.136;24.736;2023-05-23T21:49:29;10.90;;;7.57;;
6836;SDS011;3456;42.136;24.736;2023-05-23T21:51:59;12.80;;;7.93;;
6836;SDS011;3456;42.136;24.736;2023-05-23T21:54:28;12.43;;;7.63;;
6836;SDS011;3456;42.136;24.736;2023-05-23T21:56:57;9.10;;;7.30;;
6836;SDS011;3456;42.136;24.736;2023-05-23T21:59:26;10.53;;;8.10;;
6836;SDS011;3456;42.136;24.736;2023-05-23T22:01:54;14.90;;;7.33;;
6836;SDS011;3456;42.136;24.736;2023-05-23T22:04:26;12.30;;;8.07;;
6836;SDS011;3456;42.136;24.736;2023-05-23T22:06:56;11.43;;;7.80;;
6836;SDS011;3456;42.136;24.736;2023-05-23T22:09:25;11.07;;;7.67;;
6836;SDS011;3456;42.136;24.736;2023-05-23T22:11:54;12.93;;;7.43;;
6836;SDS011;3456;42.136;24.736;2023-05-23T22:14:26;14.33;;;8.00;;
6836;SDS011;3456;42.136;24.736;2023-05-23T22:17:17;12.50;;;7.40;;
6836;SDS011;3456;42.136;24.736;2023-05-23T22:20:01;9.57;;;7.13;;
6836;SDS011;3456;42.136;24.736;2023-05-23T22:22:30;10.37;;;7.10;;
6836;SDS011;3456;42.136;24.736;2023-05-23T22:24:58;13.10;;;7.90;;
6836;SDS011;3456;42.136;24.736;2023-05-23T22:27:27;9.80;;;7.63;;
6836;SDS011;3456;42.136;24.736;2023-05-23T22:29:56;10.90;;;8.00;;
6836;SDS011;3456;42.136;24.736;2023-05-23T22:32:25;13.20;;;7.57;;
6836;SDS011;3456;42.136;24.736;2023-05-23T22:34:54;8.83;;;7.10;;
6836;SDS011;3456;42.136;24.736;2023-05-23T22:37:25;13.20;;;8.00;;
6836;SDS011;3456;42.136;24.736;2023-05-23T22:39:54;8.47;;;6.57;;
6836;SDS011;3456;42.136;24.736;2023-05-23T22:42:22;8.70;;;6.60;;
6836;SDS011;3456;42.136;24.736;2023-05-23T22:44:51;10.70;;;6.63;;
6836;SDS011;3456;42.136;24.736;2023-05-23T22:47:20;19.67;;;7.73;;
6836;SDS011;3456;42.136;24.736;2023-05-23T22:49:49;12.60;;;7.60;;
6836;SDS011;3456;42.136;24.736;2023-05-23T22:52:20;14.07;;;8.63;;
6836;SDS011;3456;42.136;24.736;2023-05-23T22:54:53;14.73;;;9.67;;
6836;SDS011;3456;42.136;24.736;2023-05-23T22:57:21;15.10;;;9.63;;
6836;SDS011;3456;42.136;24.736;2023-05-23T22:59:50;15.30;;;9.40;;
6836;SDS011;3456;42.136;24.736;2023-05-23T23:02:19;12.97;;;8.87;;
6836;SDS011;3456;42.136;24.736;2023-05-23T23:04:48;12.77;;;8.73;;
6836;SDS011;3456;42.136;24.736;2023-05-23T23:07:16;15.33;;;9.10;;
6836;SDS011;3456;42.136;24.736;2023-05-23T23:09:45;11.90;;;9.23;;
6836;SDS011;3456;42.136;24.736;2023-05-23T23:12:17;14.00;;;8.90;;
6836;SDS011;3456;42.136;24.736;2023-05-23T23:14:45;12.87;;;9.20;;
6836;SDS011;3456;42.136;24.736;2023-05-23T23:17:14;12.20;;;7.60;;
6836;SDS011;3456;42.136;24.736;2023-05-23T23:19:43;11.60;;;7.97;;
6836;SDS011;3456;42.136;24.736;2023-05-23T23:22:13;13.20;;;7.40;;
6836;SDS011;3456;42.136;24.736;2023-05-23T23:24:43;9.03;;;7.57;;
6836;SDS011;3456;42.136;24.736;2023-05-23T23:27:12;14.20;;;8.17;;
6836;SDS011;3456;42.136;24.736;2023-05-23T23:29:43;15.87;;;9.03;;
6836;SDS011;3456;42.136;24.736;2023-05-23T23:32:12;16.60;;;9.03;;
6836;SDS011;3456;42.136;24.736;2023-05-23T23:34:41;13.87;;;9.33;;
6836;SDS011;3456;42.136;24.736;2023-05-23T23:37:10;14.30;;;9.03;;
6836;SDS011;3456;42.136;24.736;2023-05-23T23:39:38;15.53;;;8.53;;
6836;SDS011;3456;42.136;24.736;2023-05-23T23:42:07;17.00;;;9.50;;
6836;SDS011;3456;42.136;24.736;2023-05-23T23:44:36;11.80;;;8.17;;
6836;SDS011;3456;42.136;24.736;2023-05-23T23:47:07;14.00;;;8.70;;
6836;SDS011;3456;42.136;24.736;2023-05-23T23:49:36;13.60;;;8.50;;
6836;SDS011;3456;42.136;24.736;2023-05-23T23:52:05;12.40;;;8.90;;
6836;SDS011;3456;42.136;24.736;2023-05-23T23:54:34;11.87;;;8.37;;
6836;SDS011;3456;42.136;24.736;2023-05-23T23:57:03;12.87;;;8.73;;
6836;SDS011;3456;42.136;24.736;2023-05-23T23:59:37;13.17;;;7.73;;
